createdAt,value
2023-03-16T00:00:17.817Z,98036.28
2023-03-16T00:02:45.024Z,98045.00
2023-03-16T00:05:13.222Z,98040.81
2023-03-16T00:07:42.101Z,98034.16
2023-03-16T00:10:12.578Z,98040.09
2023-03-16T00:12:39.915Z,98037.69
2023-03-16T00:15:07.505Z,98041.13
2023-03-16T00:17:34.924Z,98033.06
2023-03-16T00:20:06.979Z,98035.19
2023-03-16T00:22:34.298Z,98034.28
2023-03-16T00:25:01.977Z,98033.59
2023-03-16T00:27:29.074Z,98032.56
2023-03-16T00:29:56.420Z,98037.88
2023-03-16T00:32:28.989Z,98019.09
2023-03-16T00:34:56.101Z,98039.97
2023-03-16T00:37:24.037Z,98038.75
2023-03-16T00:39:51.711Z,98035.31
2023-03-16T00:42:19.859Z,98044.63
2023-03-16T00:44:47.011Z,98055.59
2023-03-16T00:47:17.181Z,98052.22
2023-03-16T00:49:44.779Z,98045.41
2023-03-16T00:52:16.326Z,98048.63
2023-03-16T00:54:44.359Z,98056.22
2023-03-16T00:57:13.264Z,98047.19
2023-03-16T00:59:40.476Z,98056.38
2023-03-16T01:02:08.602Z,98058.25
2023-03-16T01:04:36.208Z,98069.84
2023-03-16T01:07:04.758Z,98067.25
2023-03-16T01:09:37.023Z,98068.47
2023-03-16T01:12:11.724Z,98061.75
2023-03-16T01:14:46.895Z,98061.81
2023-03-16T01:17:14.611Z,98063.44
2023-03-16T01:19:41.940Z,98071.09
2023-03-16T01:22:09.995Z,98067.56
2023-03-16T01:24:37.902Z,98070.09
2023-03-16T01:27:05.745Z,98074.97
2023-03-16T01:29:33.276Z,98069.88
2023-03-16T01:32:01.080Z,98064.37
2023-03-16T01:34:28.019Z,98065.34
2023-03-16T01:36:54.907Z,98059.34
2023-03-16T01:39:21.866Z,98064.41
2023-03-16T01:41:48.896Z,98066.44
2023-03-16T01:44:18.605Z,98073.31
2023-03-16T01:46:45.492Z,98066.25
2023-03-16T01:49:17.003Z,98066.38
2023-03-16T01:52:01.215Z,98070.94
2023-03-16T01:54:38.026Z,98060.28
2023-03-16T01:57:09.653Z,98085.78
2023-03-16T01:59:40.878Z,98086.22
2023-03-16T02:02:08.750Z,98094.09
2023-03-16T02:07:48.341Z,98101.00
2023-03-16T02:10:17.557Z,98118.13
2023-03-16T02:12:44.574Z,98123.03
2023-03-16T02:15:13.636Z,98124.88
2023-03-16T02:17:42.364Z,98119.72
2023-03-16T02:20:42.843Z,98133.22
2023-03-16T02:23:18.644Z,98127.44
2023-03-16T02:26:01.938Z,98120.78
2023-03-16T02:28:36.258Z,98127.56
2023-03-16T02:31:04.412Z,98141.97
2023-03-16T02:33:33.207Z,98151.91
2023-03-16T02:36:00.171Z,98143.66
2023-03-16T02:38:27.040Z,98162.91
2023-03-16T02:41:09.742Z,98160.72
2023-03-16T02:43:38.561Z,98163.94
2023-03-16T02:46:05.827Z,98157.28
2023-03-16T02:48:44.356Z,98167.47
2023-03-16T02:51:11.842Z,98171.78
2023-03-16T02:53:38.894Z,98174.25
2023-03-16T02:56:05.941Z,98176.78
2023-03-16T02:58:32.914Z,98181.09
2023-03-16T03:00:59.924Z,98186.28
2023-03-16T03:03:26.891Z,98190.50
2023-03-16T03:05:53.857Z,98181.03
2023-03-16T03:08:23.675Z,98186.16
2023-03-16T03:10:50.534Z,98185.16
2023-03-16T03:13:17.248Z,98190.44
2023-03-16T03:15:44.250Z,98188.78
2023-03-16T03:18:11.309Z,98187.00
2023-03-16T03:20:38.211Z,98186.97
2023-03-16T03:23:05.669Z,98194.59
2023-03-16T03:25:35.067Z,98191.25
2023-03-16T03:28:05.711Z,98187.72
2023-03-16T03:30:32.760Z,98196.41
2023-03-16T03:32:59.747Z,98196.31
2023-03-16T03:35:26.869Z,98194.69
2023-03-16T03:37:54.204Z,98192.88
2023-03-16T03:40:21.702Z,98198.97
2023-03-16T03:42:49.679Z,98197.13
2023-03-16T03:45:16.793Z,98202.19
2023-03-16T03:47:43.966Z,98197.19
2023-03-16T03:50:12.497Z,98203.94
2023-03-16T03:52:39.480Z,98215.00
2023-03-16T03:55:07.094Z,98220.91
2023-03-16T03:57:33.984Z,98220.84
2023-03-16T04:00:00.712Z,98232.75
2023-03-16T04:02:27.870Z,98231.03
2023-03-16T04:04:54.958Z,98229.44
2023-03-16T04:07:21.909Z,98235.41
2023-03-16T04:09:48.766Z,98233.78
2023-03-16T04:12:15.446Z,98243.06
2023-03-16T04:14:42.317Z,98242.97
2023-03-16T04:17:09.003Z,98253.16
2023-03-16T04:19:35.992Z,98255.66
2023-03-16T04:22:02.909Z,98254.72
2023-03-16T04:24:29.604Z,98258.19
2023-03-16T04:26:56.443Z,98262.34
2023-03-16T04:29:25.526Z,98262.38
2023-03-16T04:31:53.987Z,98262.38
2023-03-16T04:34:25.148Z,98259.97
2023-03-16T04:37:12.092Z,98266.72
2023-03-16T04:45:51.045Z,98279.37
2023-03-16T04:48:18.446Z,98284.47
2023-03-16T04:50:45.988Z,98287.63
2023-03-16T04:53:13.621Z,98294.56
2023-03-16T04:55:41.973Z,98300.38
2023-03-16T04:58:08.959Z,98290.03
2023-03-16T05:00:35.861Z,98297.59
2023-03-16T05:03:02.966Z,98306.34
2023-03-16T05:05:30.335Z,98303.59
2023-03-16T05:07:57.335Z,98309.91
2023-03-16T05:10:24.022Z,98311.47
2023-03-16T05:12:50.896Z,98317.47
2023-03-16T05:15:17.594Z,98319.75
2023-03-16T05:17:44.569Z,98325.06
2023-03-16T05:20:15.845Z,98316.22
2023-03-16T05:22:44.219Z,98314.50
2023-03-16T05:25:15.195Z,98314.44
2023-03-16T05:27:46.692Z,98332.31
2023-03-16T05:30:14.581Z,98318.50
2023-03-16T05:32:41.488Z,98331.41
2023-03-16T05:35:09.079Z,98331.37
2023-03-16T05:37:38.254Z,98333.75
2023-03-16T05:40:14.500Z,98344.41
2023-03-16T05:42:41.440Z,98349.72
2023-03-16T05:45:09.057Z,98348.34
2023-03-16T05:47:37.417Z,98354.66
2023-03-16T05:50:06.076Z,98347.63
2023-03-16T05:52:34.020Z,98349.03
2023-03-16T05:55:01.029Z,98356.97
2023-03-16T05:57:27.910Z,98352.28
2023-03-16T05:59:54.860Z,98362.78
2023-03-16T06:02:21.781Z,98372.78
2023-03-16T06:04:48.653Z,98374.94
2023-03-16T06:07:15.311Z,98377.03
2023-03-16T06:09:42.270Z,98374.69
2023-03-16T06:12:09.814Z,98377.50
2023-03-16T06:14:36.971Z,98379.53
2023-03-16T06:17:03.826Z,98383.22
2023-03-16T06:19:30.533Z,98385.31
2023-03-16T06:21:57.458Z,98381.19
2023-03-16T06:24:24.409Z,98386.44
2023-03-16T06:26:51.295Z,98394.56
2023-03-16T06:29:18.212Z,98390.38
2023-03-16T06:31:45.078Z,98404.34
2023-03-16T06:34:12.028Z,98402.53
2023-03-16T06:36:39.946Z,98404.16
2023-03-16T06:39:07.015Z,98410.47
2023-03-16T06:41:35.841Z,98406.78
2023-03-16T06:44:03.036Z,98417.28
2023-03-16T06:46:29.890Z,98404.66
2023-03-16T06:48:56.547Z,98408.37
2023-03-16T06:51:23.376Z,98404.94
2023-03-16T06:53:50.039Z,98417.59
2023-03-16T06:56:16.941Z,98416.59
2023-03-16T06:58:43.873Z,98425.19
2023-03-16T07:01:10.895Z,98425.06
2023-03-16T07:03:37.790Z,98430.00
2023-03-16T07:06:04.644Z,98439.22
2023-03-16T07:08:31.604Z,98440.50
2023-03-16T07:10:58.530Z,98441.03
2023-03-16T07:13:26.072Z,98441.94
2023-03-16T07:15:53.188Z,98448.16
2023-03-16T07:18:23.005Z,98442.09
2023-03-16T07:20:49.849Z,98444.78
2023-03-16T07:23:16.570Z,98444.56
2023-03-16T07:25:44.864Z,98453.47
2023-03-16T07:28:11.932Z,98466.03
2023-03-16T07:30:38.853Z,98473.53
2023-03-16T07:33:05.783Z,98472.62
2023-03-16T07:35:32.745Z,98461.75
2023-03-16T07:37:59.583Z,98468.91
2023-03-16T07:40:26.394Z,98474.91
2023-03-16T07:42:53.733Z,98473.34
2023-03-16T07:45:21.711Z,98482.44
2023-03-16T07:47:49.202Z,98491.28
2023-03-16T07:50:19.478Z,98474.88
2023-03-16T07:52:46.537Z,98488.25
2023-03-16T07:55:14.205Z,98486.00
2023-03-16T07:57:42.504Z,98491.66
2023-03-16T08:00:14.374Z,98497.94
2023-03-16T08:02:42.052Z,98498.66
2023-03-16T08:05:11.116Z,98508.09
2023-03-16T08:07:38.091Z,98502.62
2023-03-16T08:10:05.480Z,98504.72
2023-03-16T08:12:33.974Z,98504.81
2023-03-16T08:15:00.853Z,98507.47
2023-03-16T08:17:29.829Z,98510.00
2023-03-16T08:19:56.740Z,98509.59
2023-03-16T08:22:24.552Z,98506.87
2023-03-16T08:24:52.143Z,98503.84
2023-03-16T08:27:20.603Z,98508.28
2023-03-16T08:29:47.515Z,98510.00
2023-03-16T08:32:14.752Z,98506.47
2023-03-16T08:34:41.634Z,98507.25
2023-03-16T08:37:09.879Z,98492.13
2023-03-16T08:39:36.731Z,98496.53
2023-03-16T08:42:03.433Z,98500.03
2023-03-16T08:44:30.413Z,98502.09
2023-03-16T08:46:57.362Z,98497.56
2023-03-16T08:49:24.314Z,98494.78
2023-03-16T08:51:51.249Z,98479.16
2023-03-16T08:54:18.157Z,98485.97
2023-03-16T08:56:45.029Z,98496.91
2023-03-16T08:59:27.081Z,98491.28
2023-03-16T09:01:56.431Z,98501.59
2023-03-16T09:04:23.842Z,98497.06
2023-03-16T09:07:09.859Z,98500.53
2023-03-16T09:09:37.189Z,98498.72
2023-03-16T09:12:06.218Z,98503.00
2023-03-16T09:14:33.551Z,98504.38
2023-03-16T09:17:00.410Z,98501.53
2023-03-16T09:20:21.889Z,98494.34
2023-03-16T09:22:52.707Z,98506.41
2023-03-16T09:25:20.667Z,98512.22
2023-03-16T09:27:47.528Z,98518.53
2023-03-16T09:30:14.520Z,98523.41
2023-03-16T09:33:22.989Z,98511.94
2023-03-16T09:35:49.973Z,98521.72
2023-03-16T09:38:18.070Z,98524.34
2023-03-16T09:40:47.291Z,98531.84
2023-03-16T09:43:39.179Z,98536.94
2023-03-16T09:46:15.422Z,98529.06
2023-03-16T09:48:42.484Z,98531.19
2023-03-16T09:51:23.057Z,98535.53
2023-03-16T09:53:53.176Z,98533.00
2023-03-16T09:56:33.885Z,98524.13
2023-03-16T09:59:01.229Z,98533.59
2023-03-16T10:01:38.207Z,98537.66
2023-03-16T10:04:47.326Z,98541.53
2023-03-16T10:07:34.577Z,98548.66
2023-03-16T10:10:34.052Z,98533.53
2023-03-16T10:13:01.692Z,98538.00
2023-03-16T10:15:32.870Z,98542.75
2023-03-16T10:18:13.631Z,98536.03
2023-03-16T10:20:42.154Z,98528.81
2023-03-16T10:23:17.505Z,98521.13
2023-03-16T10:25:48.511Z,98534.91
2023-03-16T10:28:18.031Z,98531.84
2023-03-16T10:30:45.050Z,98532.13
2023-03-16T10:33:30.501Z,98548.56
2023-03-16T10:36:06.148Z,98546.69
2023-03-16T10:38:47.034Z,98527.59
2023-03-16T10:41:21.631Z,98539.34
2023-03-16T10:43:55.756Z,98543.75
2023-03-16T10:46:23.493Z,98537.44
2023-03-16T10:49:01.908Z,98538.56
2023-03-16T10:51:31.403Z,98535.03
2023-03-16T10:54:20.494Z,98535.13
2023-03-16T10:56:50.684Z,98532.00
2023-03-16T10:59:34.590Z,98535.59
2023-03-16T11:02:16.687Z,98541.00
2023-03-16T11:04:43.631Z,98530.37
2023-03-16T11:07:17.611Z,98533.62
2023-03-16T11:09:45.072Z,98530.69
2023-03-16T11:12:31.457Z,98535.78
2023-03-16T11:15:09.368Z,98532.81
2023-03-16T11:17:45.158Z,98536.81
2023-03-16T11:20:18.262Z,98525.31
2023-03-16T11:22:47.336Z,98533.72
2023-03-16T11:25:22.747Z,98530.59
2023-03-16T11:28:13.281Z,98531.56
2023-03-16T11:31:02.959Z,98531.13
2023-03-16T11:33:31.230Z,98526.88
2023-03-16T11:36:14.137Z,98522.22
2023-03-16T11:38:56.828Z,98525.06
2023-03-16T11:41:31.160Z,98516.38
2023-03-16T11:44:10.493Z,98516.78
2023-03-16T11:46:42.855Z,98521.19
2023-03-16T11:49:36.115Z,98527.84
2023-03-16T11:52:17.881Z,98525.94
2023-03-16T11:54:55.811Z,98516.69
2023-03-16T11:57:44.394Z,98514.25
2023-03-16T12:00:47.852Z,98514.25
2023-03-16T12:03:23.095Z,98506.56
2023-03-16T12:06:05.709Z,98515.09
2023-03-16T12:08:53.781Z,98509.97
2023-03-16T12:11:46.842Z,98509.78
2023-03-16T12:14:35.364Z,98510.06
2023-03-16T12:17:11.808Z,98511.47
2023-03-16T12:19:57.607Z,98496.88
2023-03-16T12:22:45.757Z,98505.00
2023-03-16T12:25:22.408Z,98496.53
2023-03-16T12:27:54.956Z,98509.66
2023-03-16T12:30:36.792Z,98508.03
2023-03-16T12:33:18.994Z,98490.59
2023-03-16T12:36:07.260Z,98494.38
2023-03-16T12:38:45.074Z,98490.91
2023-03-16T12:41:23.246Z,98502.72
2023-03-16T12:44:14.399Z,98501.94
2023-03-16T12:47:00.294Z,98499.34
2023-03-16T12:49:28.961Z,98499.69
2023-03-16T12:52:01.760Z,98490.91
2023-03-16T12:54:29.244Z,98503.22
2023-03-16T12:57:07.514Z,98494.03
2023-03-16T12:59:45.817Z,98492.06
2023-03-16T13:02:30.640Z,98498.34
2023-03-16T13:05:18.748Z,98490.53
2023-03-16T13:07:50.593Z,98493.97
2023-03-16T13:10:21.032Z,98495.66
2023-03-16T13:12:48.374Z,98493.75
2023-03-16T13:15:19.553Z,98491.00
2023-03-16T13:17:48.541Z,98494.19
2023-03-16T13:20:30.825Z,98495.03
2023-03-16T13:23:18.465Z,98495.22
2023-03-16T13:26:00.418Z,98498.84
2023-03-16T13:28:32.840Z,98499.94
2023-03-16T13:31:00.732Z,98502.53
2023-03-16T13:33:31.300Z,98494.75
2023-03-16T13:35:59.972Z,98496.34
2023-03-16T13:38:28.792Z,98496.31
2023-03-16T13:40:58.349Z,98492.84
2023-03-16T13:43:29.061Z,98506.03
2023-03-16T13:45:56.049Z,98499.06
2023-03-16T13:48:23.183Z,98498.34
2023-03-16T13:50:54.980Z,98485.00
2023-03-16T13:53:29.154Z,98482.31
2023-03-16T13:55:57.696Z,98494.16
2023-03-16T13:58:37.342Z,98493.91
2023-03-16T14:01:16.198Z,98489.63
2023-03-16T14:03:43.681Z,98482.00
2023-03-16T14:06:29.133Z,98486.41
2023-03-16T14:09:01.538Z,98499.25
2023-03-16T14:11:28.713Z,98499.19
2023-03-16T14:13:57.930Z,98500.47
2023-03-16T14:16:28.208Z,98495.44
2023-03-16T14:19:03.067Z,98502.09
2023-03-16T14:21:32.073Z,98498.09
2023-03-16T14:24:05.055Z,98490.31
2023-03-16T14:26:42.835Z,98499.16
2023-03-16T14:29:20.517Z,98498.16
2023-03-16T14:31:47.393Z,98506.22
2023-03-16T14:34:30.739Z,98502.78
2023-03-16T14:37:12.403Z,98502.81
2023-03-16T14:39:40.699Z,98503.00
2023-03-16T14:42:28.841Z,98496.59
2023-03-16T14:44:57.407Z,98499.44
2023-03-16T15:01:48.221Z,98507.56
2023-03-16T15:04:17.481Z,98507.34
2023-03-16T15:06:44.707Z,98505.44
2023-03-16T15:09:34.601Z,98506.22
2023-03-16T15:12:01.790Z,98511.81
2023-03-16T15:14:46.918Z,98509.34
2023-03-16T15:17:13.862Z,98517.88
2023-03-16T15:19:41.308Z,98506.41
2023-03-16T15:22:11.471Z,98521.06
2023-03-16T15:24:38.489Z,98526.06
2023-03-16T15:27:16.571Z,98508.88
2023-03-16T15:29:43.431Z,98515.03
2023-03-16T15:32:13.185Z,98514.50
2023-03-16T15:34:40.051Z,98519.94
2023-03-16T15:37:06.850Z,98511.53
2023-03-16T15:39:33.741Z,98516.13
2023-03-16T15:42:00.640Z,98521.53
2023-03-16T15:44:28.173Z,98530.28
2023-03-16T15:46:56.012Z,98526.12
2023-03-16T15:49:23.644Z,98526.03
2023-03-16T15:51:50.538Z,98527.53
2023-03-16T15:54:17.390Z,98537.91
2023-03-16T15:56:53.726Z,98537.16
2023-03-16T15:59:23.612Z,98544.69
2023-03-16T16:01:50.882Z,98532.84
2023-03-16T16:04:20.366Z,98545.00
2023-03-16T16:06:48.175Z,98544.00
2023-03-16T16:09:15.268Z,98541.00
2023-03-16T16:11:42.543Z,98540.16
2023-03-16T16:14:17.460Z,98541.88
2023-03-16T16:16:46.130Z,98548.38
2023-03-16T16:19:14.490Z,98554.63
2023-03-16T16:21:41.781Z,98557.88
2023-03-16T16:24:09.760Z,98559.50
2023-03-16T16:26:50.912Z,98561.88
2023-03-16T16:29:22.889Z,98553.97
2023-03-16T16:31:51.594Z,98555.91
2023-03-16T16:34:29.709Z,98566.50
2023-03-16T16:36:57.530Z,98566.41
2023-03-16T16:39:24.856Z,98565.78
2023-03-16T16:41:54.779Z,98573.78
2023-03-16T16:44:27.777Z,98577.97
2023-03-16T16:46:55.355Z,98579.53
2023-03-16T16:49:31.119Z,98584.03
2023-03-16T16:51:58.809Z,98593.09
2023-03-16T16:54:29.089Z,98593.00
2023-03-16T16:56:58.379Z,98599.50
2023-03-16T16:59:27.462Z,98594.78
2023-03-16T17:01:54.516Z,98601.38
2023-03-16T17:04:24.860Z,98603.34
2023-03-16T17:06:55.730Z,98606.16
2023-03-16T17:09:23.832Z,98605.97
2023-03-16T17:11:51.420Z,98613.22
2023-03-16T17:14:20.641Z,98611.59
2023-03-16T17:16:48.626Z,98617.53
2023-03-16T17:19:23.431Z,98617.53
2023-03-16T17:21:55.674Z,98620.53
2023-03-16T17:24:23.021Z,98616.75
2023-03-16T17:26:53.203Z,98618.88
2023-03-16T17:29:29.163Z,98629.09
2023-03-16T17:31:56.302Z,98624.00
2023-03-16T17:34:25.119Z,98624.66
2023-03-16T17:36:52.701Z,98622.97
2023-03-16T17:39:24.613Z,98626.28
2023-03-16T17:41:59.725Z,98629.31
2023-03-16T17:44:30.559Z,98627.59
2023-03-16T17:46:57.446Z,98629.66
2023-03-16T17:49:28.525Z,98637.37
2023-03-16T17:51:56.036Z,98636.63
2023-03-16T17:54:23.105Z,98633.34
2023-03-16T17:56:52.246Z,98632.25
2023-03-16T17:59:20.789Z,98635.72
2023-03-16T18:01:48.102Z,98641.41
2023-03-16T18:04:19.842Z,98640.56
2023-03-16T18:06:49.527Z,98640.97
2023-03-16T18:09:18.011Z,98645.06
2023-03-16T18:11:47.778Z,98645.16
2023-03-16T18:14:25.846Z,98652.09
2023-03-16T18:16:52.906Z,98666.28
2023-03-16T18:19:24.646Z,98653.78
2023-03-16T18:21:53.748Z,98655.50
2023-03-16T18:24:22.423Z,98649.34
2023-03-16T18:26:49.712Z,98652.03
2023-03-16T18:29:16.556Z,98648.19
2023-03-16T18:31:43.582Z,98650.50
2023-03-16T18:34:20.733Z,98658.63
2023-03-16T18:36:47.698Z,98653.66
2023-03-16T18:39:19.005Z,98652.44
2023-03-16T18:41:47.144Z,98662.03
2023-03-16T18:44:24.076Z,98662.03
2023-03-16T18:46:52.053Z,98671.97
2023-03-16T18:49:36.242Z,98670.78
2023-03-16T18:52:04.018Z,98681.94
2023-03-16T18:54:32.851Z,98683.94
2023-03-16T18:56:59.891Z,98683.59
2023-03-16T18:59:27.330Z,98686.59
2023-03-16T19:01:55.234Z,98687.66
2023-03-16T19:04:27.038Z,98691.63
2023-03-16T19:06:55.415Z,98685.97
2023-03-16T19:09:28.204Z,98691.81
2023-03-16T19:11:55.227Z,98684.94
2023-03-16T19:14:27.391Z,98690.09
2023-03-16T19:16:55.083Z,98695.22
2023-03-16T19:19:23.469Z,98693.25
2023-03-16T19:21:55.491Z,98687.00
2023-03-16T19:24:29.105Z,98693.47
2023-03-16T19:26:59.213Z,98689.84
2023-03-16T19:29:33.903Z,98697.37
2023-03-16T19:32:01.437Z,98698.88
2023-03-16T19:34:28.717Z,98702.91
2023-03-16T19:36:55.748Z,98709.62
2023-03-16T19:39:22.752Z,98714.38
2023-03-16T19:41:54.882Z,98721.63
2023-03-16T19:44:23.876Z,98721.53
2023-03-16T19:46:50.942Z,98706.63
2023-03-16T19:49:20.316Z,98718.63
2023-03-16T19:51:48.336Z,98721.97
2023-03-16T19:54:22.766Z,98713.50
2023-03-16T19:56:50.694Z,98719.81
2023-03-16T19:59:17.821Z,98721.78
2023-03-16T20:01:45.159Z,98722.63
2023-03-16T20:04:22.280Z,98724.62
2023-03-16T20:06:50.091Z,98720.22
2023-03-16T20:09:19.536Z,98721.31
2023-03-16T20:11:47.855Z,98728.34
2023-03-16T20:14:26.889Z,98724.16
2023-03-16T20:16:53.819Z,98724.56
2023-03-16T20:19:22.344Z,98716.03
2023-03-16T20:21:49.609Z,98714.25
2023-03-16T20:24:19.102Z,98722.41
2023-03-16T20:26:47.694Z,98729.06
2023-03-16T20:29:28.130Z,98734.19
2023-03-16T20:31:55.116Z,98732.59
2023-03-16T20:34:25.146Z,98747.31
2023-03-16T20:36:52.045Z,98743.91
2023-03-16T20:39:19.002Z,98741.53
2023-03-16T20:41:45.978Z,98739.53
2023-03-16T20:44:15.398Z,98740.59
2023-03-16T20:46:44.818Z,98742.13
2023-03-16T20:49:25.420Z,98739.66
2023-03-16T20:51:52.805Z,98739.66
2023-03-16T20:54:20.452Z,98742.41
2023-03-16T20:56:48.254Z,98742.25
2023-03-16T20:59:24.026Z,98738.94
2023-03-16T21:01:54.707Z,98748.41
2023-03-16T21:04:27.419Z,98746.69
2023-03-16T21:06:55.949Z,98741.56
2023-03-16T21:09:22.954Z,98751.72
2023-03-16T21:11:49.982Z,98758.53
2023-03-16T21:14:20.276Z,98756.00
2023-03-16T21:16:47.700Z,98754.34
2023-03-16T21:19:16.502Z,98754.38
2023-03-16T21:21:43.783Z,98751.81
2023-03-16T21:24:10.791Z,98760.28
2023-03-16T21:26:38.459Z,98755.19
2023-03-16T21:29:08.440Z,98754.38
2023-03-16T21:31:35.561Z,98752.63
2023-03-16T21:34:03.106Z,98755.19
2023-03-16T21:36:29.983Z,98756.03
2023-03-16T21:38:57.268Z,98751.66
2023-03-16T21:41:24.313Z,98750.13
2023-03-16T21:43:51.836Z,98752.56
2023-03-16T21:46:25.696Z,98750.09
2023-03-16T21:48:54.878Z,98753.41
2023-03-16T21:51:25.413Z,98750.81
2023-03-16T21:53:53.645Z,98749.81
2023-03-16T21:56:23.069Z,98752.16
2023-03-16T21:58:50.592Z,98751.06
2023-03-16T22:01:23.563Z,98748.81
2023-03-16T22:03:55.642Z,98736.94
2023-03-16T22:06:23.661Z,98745.47
2023-03-16T22:08:51.547Z,98739.72
2023-03-16T22:11:21.481Z,98737.75
2023-03-16T22:13:49.375Z,98740.28
2023-03-16T22:16:18.894Z,98748.81
2023-03-16T22:18:47.422Z,98752.47
2023-03-16T22:21:37.792Z,98755.53
2023-03-16T22:24:07.336Z,98754.31
2023-03-16T22:26:34.309Z,98761.81
2023-03-16T22:29:02.066Z,98751.37
2023-03-16T22:31:34.383Z,98774.09
2023-03-16T22:34:03.199Z,98770.09
2023-03-16T22:36:31.636Z,98764.13
2023-03-16T22:39:00.995Z,98765.84
2023-03-16T22:41:28.928Z,98772.16
2023-03-16T22:43:56.029Z,98776.38
2023-03-16T22:46:24.630Z,98769.44
2023-03-16T22:48:52.405Z,98773.03
2023-03-16T22:51:32.154Z,98773.91
2023-03-16T22:54:02.676Z,98782.34
2023-03-16T22:56:30.307Z,98772.06
2023-03-16T22:59:03.507Z,98774.66
2023-03-16T23:01:51.853Z,98775.53
2023-03-16T23:04:20.123Z,98770.28
2023-03-16T23:06:48.734Z,98782.56
2023-03-16T23:09:16.762Z,98779.94
2023-03-16T23:11:45.142Z,98776.97
2023-03-16T23:14:27.978Z,98777.81
2023-03-16T23:16:54.969Z,98776.84
2023-03-16T23:19:32.062Z,98786.28
2023-03-16T23:22:05.106Z,98782.72
2023-03-16T23:24:33.061Z,98790.25
2023-03-16T23:27:00.057Z,98781.78
2023-03-16T23:29:27.930Z,98782.44
2023-03-16T23:31:54.940Z,98784.34
2023-03-16T23:34:24.073Z,98795.28
2023-03-16T23:36:51.549Z,98792.47
2023-03-16T23:39:18.737Z,98791.50
2023-03-16T23:41:47.645Z,98788.13
2023-03-16T23:44:26.374Z,98788.53
2023-03-16T23:46:53.730Z,98789.72
2023-03-16T23:49:31.257Z,98791.78
2023-03-16T23:51:58.784Z,98794.56
2023-03-16T23:54:28.805Z,98792.00
2023-03-16T23:56:55.785Z,98790.97
2023-03-16T23:59:23.654Z,98797.09
